createdAt,value
2023-01-01T00:02:04.836Z,4.60
2023-01-01T00:05:32.314Z,3.80
2023-01-01T00:09:13.110Z,3.80
2023-01-01T00:12:40.389Z,4.30
2023-01-01T00:16:12.651Z,4.40
2023-01-01T00:19:39.947Z,4.40
2023-01-01T00:23:06.946Z,4.70
2023-01-01T00:26:35.586Z,5.20
2023-01-01T00:30:04.443Z,4.40
2023-01-01T00:33:31.598Z,4.50
2023-01-01T00:36:59.566Z,4.40
2023-01-01T00:40:26.738Z,4.90
2023-01-01T00:43:53.694Z,3.70
2023-01-01T00:47:20.540Z,4.60
2023-01-01T00:50:47.606Z,4.00
2023-01-01T00:54:14.459Z,3.70
2023-01-01T00:57:41.828Z,3.50
2023-01-01T01:01:09.487Z,3.40
2023-01-01T01:04:36.787Z,3.30
2023-01-01T01:08:03.695Z,3.00
2023-01-01T01:11:30.864Z,4.90
2023-01-01T01:14:57.721Z,3.00
2023-01-01T01:18:24.674Z,3.10
2023-01-01T01:21:52.583Z,3.80
2023-01-01T01:25:19.737Z,3.40
2023-01-01T01:28:50.086Z,3.80
2023-01-01T01:32:17.481Z,3.70
2023-01-01T01:35:51.313Z,3.50
2023-01-01T01:39:18.351Z,3.20
2023-01-01T01:42:48.665Z,3.40
2023-01-01T01:46:19.009Z,4.40
2023-01-01T01:49:47.474Z,3.80
2023-01-01T01:53:19.113Z,3.50
2023-01-01T01:56:51.776Z,3.50
2023-01-01T02:00:20.109Z,3.80
2023-01-01T02:03:52.961Z,4.20
2023-01-01T02:07:20.800Z,3.80
2023-01-01T02:10:47.750Z,2.90
2023-01-01T02:14:15.311Z,3.90
2023-01-01T02:17:53.745Z,3.00
2023-01-01T02:21:26.598Z,3.50
2023-01-01T02:25:06.432Z,3.30
2023-01-01T02:28:51.885Z,3.50
2023-01-01T02:32:22.389Z,3.30
2023-01-01T02:35:53.707Z,3.00
2023-01-01T02:39:23.772Z,2.90
2023-01-01T02:42:51.940Z,3.20
2023-01-01T02:49:52.634Z,3.00
2023-01-01T02:53:28.509Z,3.30
2023-01-01T02:57:06.291Z,3.00
2023-01-01T03:00:35.384Z,3.20
2023-01-01T03:04:13.006Z,2.90
2023-01-01T03:07:50.148Z,3.20
2023-01-01T03:11:19.950Z,3.70
2023-01-01T03:18:20.353Z,3.70
2023-01-01T03:21:51.849Z,4.00
2023-01-01T03:25:24.002Z,4.40
2023-01-01T03:28:57.139Z,4.50
2023-01-01T03:32:50.006Z,3.70
2023-01-01T03:36:20.497Z,4.70
2023-01-01T03:39:51.142Z,5.30
2023-01-01T03:43:23.795Z,4.60
2023-01-01T03:46:51.515Z,5.00
2023-01-01T03:50:19.093Z,5.00
2023-01-01T03:53:46.322Z,5.80
2023-01-01T03:57:21.131Z,5.60
2023-01-01T04:00:52.724Z,5.60
2023-01-01T04:04:20.706Z,6.00
2023-01-01T04:11:50.109Z,6.30
2023-01-01T04:15:17.443Z,6.70
2023-01-01T04:18:44.458Z,6.40
2023-01-01T04:22:11.480Z,6.90
2023-01-01T04:25:38.407Z,6.90
2023-01-01T04:29:05.288Z,6.60
2023-01-01T04:32:33.299Z,7.40
2023-01-01T04:36:07.410Z,6.80
2023-01-01T04:39:34.301Z,7.70
2023-01-01T04:43:01.657Z,7.20
2023-01-01T04:46:28.802Z,7.40
2023-01-01T04:49:55.680Z,7.50
2023-01-01T04:53:22.662Z,7.00
2023-01-01T04:56:49.454Z,6.80
2023-01-01T05:00:17.459Z,7.10
2023-01-01T05:03:44.547Z,6.80
2023-01-01T05:07:11.356Z,6.70
2023-01-01T05:10:38.234Z,6.50
2023-01-01T05:14:05.530Z,6.80
2023-01-01T05:17:32.337Z,6.90
2023-01-01T05:21:03.392Z,6.10
2023-01-01T05:24:31.499Z,6.10
2023-01-01T05:27:58.401Z,6.00
2023-01-01T05:31:27.337Z,6.20
2023-01-01T05:34:55.156Z,5.80
2023-01-01T05:38:22.464Z,5.40
2023-01-01T05:41:49.378Z,5.20
2023-01-01T05:45:16.410Z,5.10
2023-01-01T05:48:43.487Z,5.10
2023-01-01T05:52:10.550Z,5.50
2023-01-01T05:55:37.415Z,5.20
2023-01-01T05:59:05.488Z,5.00
2023-01-01T06:02:34.294Z,5.10
2023-01-01T06:06:06.321Z,4.90
2023-01-01T06:09:33.508Z,4.60
2023-01-01T06:13:00.621Z,5.00
2023-01-01T06:16:29.741Z,4.20
2023-01-01T06:19:56.668Z,5.10
2023-01-01T06:23:23.506Z,4.70
2023-01-01T06:26:50.334Z,4.70
2023-01-01T06:30:17.341Z,3.80
2023-01-01T06:33:44.773Z,4.20
2023-01-01T06:37:11.739Z,4.20
2023-01-01T06:40:38.609Z,3.90
2023-01-01T06:44:05.818Z,4.60
2023-01-01T06:47:36.352Z,3.60
2023-01-01T06:51:11.365Z,3.80
2023-01-01T06:54:38.295Z,4.30
2023-01-01T06:58:09.342Z,3.50
2023-01-01T07:01:44.454Z,3.90
2023-01-01T07:05:12.493Z,3.30
2023-01-01T07:08:39.617Z,3.20
2023-01-01T07:12:07.071Z,3.70
2023-01-01T07:15:34.422Z,3.20
2023-01-01T07:19:01.788Z,3.10
2023-01-01T07:22:29.198Z,3.60
2023-01-01T07:25:57.547Z,3.30
2023-01-01T07:29:24.843Z,2.90
2023-01-01T07:32:57.436Z,3.20
2023-01-01T07:36:24.518Z,3.10
2023-01-01T07:39:51.526Z,3.50
2023-01-01T07:43:18.467Z,3.20
2023-01-01T07:46:45.409Z,3.50
2023-01-01T07:50:18.350Z,3.60
2023-01-01T07:53:45.270Z,3.70
2023-01-01T07:57:12.357Z,3.90
2023-01-01T08:00:39.592Z,4.00
2023-01-01T08:04:06.734Z,3.40
2023-01-01T08:07:33.717Z,3.40
2023-01-01T08:11:04.440Z,3.60
2023-01-01T08:18:00.298Z,3.20
2023-01-01T08:21:27.609Z,3.40
2023-01-01T08:24:54.751Z,3.40
2023-01-01T08:28:21.607Z,3.20
2023-01-01T08:31:48.478Z,3.50
2023-01-01T08:35:15.664Z,4.00
2023-01-01T08:38:42.532Z,3.80
2023-01-01T08:42:12.401Z,3.30
2023-01-01T08:45:39.711Z,3.40
2023-01-01T08:49:06.956Z,3.80
2023-01-01T08:52:34.228Z,3.10
2023-01-01T08:56:03.938Z,4.00
2023-01-01T08:59:31.009Z,3.90
2023-01-01T09:02:58.104Z,4.00
2023-01-01T09:06:25.268Z,4.10
2023-01-01T09:09:52.344Z,4.00
2023-01-01T09:13:22.738Z,4.10
2023-01-01T09:16:49.854Z,4.50
2023-01-01T09:20:18.944Z,3.50
2023-01-01T09:23:45.962Z,3.80
2023-01-01T09:27:12.866Z,4.00
2023-01-01T09:30:39.785Z,4.60
2023-01-01T09:34:06.712Z,3.70
2023-01-01T09:37:34.620Z,3.50
2023-01-01T09:41:10.619Z,3.40
2023-01-01T09:45:00.325Z,3.60
2023-01-01T09:48:30.525Z,3.80
2023-01-01T09:52:01.798Z,3.60
2023-01-01T09:55:44.772Z,4.00
2023-01-01T09:59:13.327Z,3.60
2023-01-01T10:02:54.019Z,3.60
2023-01-01T10:06:27.312Z,3.80
2023-01-01T10:10:05.098Z,4.60
2023-01-01T10:13:39.153Z,3.80
2023-01-01T10:17:12.395Z,3.70
2023-01-01T10:20:44.163Z,4.60
2023-01-01T10:24:29.400Z,4.30
2023-01-01T10:28:01.112Z,4.00
2023-01-01T10:31:34.563Z,4.20
2023-01-01T10:35:03.543Z,4.00
2023-01-01T10:38:30.824Z,4.50
2023-01-01T10:42:01.619Z,8.90
2023-01-01T10:45:34.260Z,4.20
2023-01-01T10:49:12.182Z,5.30
2023-01-01T10:52:41.049Z,3.90
2023-01-01T10:56:11.790Z,4.20
2023-01-01T10:59:40.876Z,4.10
2023-01-01T11:03:21.211Z,4.40
2023-01-01T11:06:49.371Z,4.10
2023-01-01T11:10:21.304Z,4.00
2023-01-01T11:13:52.854Z,4.30
2023-01-01T11:17:24.979Z,4.40
2023-01-01T11:20:57.403Z,4.10
2023-01-01T11:24:27.004Z,4.60
2023-01-01T11:31:21.579Z,4.60
2023-01-01T11:34:54.963Z,4.40
2023-01-01T11:38:29.524Z,4.70
2023-01-01T11:41:59.388Z,4.10
2023-01-01T11:45:37.247Z,4.90
2023-01-01T11:49:13.853Z,4.60
2023-01-01T11:52:42.599Z,5.00
2023-01-01T11:56:14.110Z,5.30
2023-01-01T11:59:48.244Z,5.70
2023-01-01T12:03:33.322Z,4.70
2023-01-01T12:07:06.478Z,5.50
2023-01-01T12:10:41.715Z,4.80
2023-01-01T12:14:18.483Z,4.80
2023-01-01T12:17:48.466Z,4.40
2023-01-01T12:21:23.667Z,5.00
2023-01-01T12:24:52.108Z,4.60
2023-01-01T12:28:35.159Z,4.60
2023-01-01T12:32:08.239Z,5.20
2023-01-01T12:35:45.176Z,4.70
2023-01-01T12:39:45.837Z,4.20
2023-01-01T12:43:15.921Z,5.30
2023-01-01T12:46:57.943Z,5.00
2023-01-01T12:50:36.916Z,4.50
2023-01-01T12:54:31.534Z,4.60
2023-01-01T12:58:05.884Z,5.80
2023-01-01T13:01:34.997Z,4.90
2023-01-01T13:05:09.012Z,4.70
2023-01-01T13:08:38.981Z,6.80
2023-01-01T13:12:09.259Z,7.60
2023-01-01T13:15:55.245Z,6.30
2023-01-01T13:19:35.062Z,7.00
2023-01-01T13:23:01.956Z,7.20
2023-01-01T13:26:42.759Z,5.90
2023-01-01T13:30:53.738Z,6.50
2023-01-01T13:34:50.843Z,8.40
2023-01-01T13:38:44.772Z,6.40
2023-01-01T13:42:41.669Z,7.60
2023-01-01T13:46:13.034Z,7.30
2023-01-01T13:49:59.900Z,7.60
2023-01-01T13:53:51.101Z,8.30
2023-01-01T13:57:33.462Z,9.10
2023-01-01T14:01:36.106Z,9.40
2023-01-01T14:05:06.906Z,10.90
2023-01-01T14:08:35.415Z,9.50
2023-01-01T14:12:16.086Z,9.40
2023-01-01T14:15:51.243Z,9.40
2023-01-01T14:19:18.303Z,8.90
2023-01-01T14:22:47.014Z,10.50
2023-01-01T14:26:16.675Z,10.00
2023-01-01T14:33:25.299Z,8.80
2023-01-01T14:36:56.621Z,9.60
2023-01-01T14:40:29.580Z,9.50
2023-01-01T14:43:59.432Z,8.70
2023-01-01T14:47:30.131Z,7.80
2023-01-01T14:50:58.480Z,8.50
2023-01-01T14:54:32.461Z,7.50
2023-01-01T14:58:02.336Z,7.70
2023-01-01T15:01:29.769Z,9.40
2023-01-01T15:04:58.411Z,10.20
2023-01-01T15:08:27.034Z,9.60
2023-01-01T15:11:56.590Z,9.20
2023-01-01T15:15:44.294Z,9.80
2023-01-01T15:19:24.340Z,9.40
2023-01-01T15:22:52.949Z,8.70
2023-01-01T15:26:30.340Z,9.90
2023-01-01T15:29:57.888Z,11.00
2023-01-01T15:33:25.542Z,10.80
2023-01-01T15:36:54.433Z,10.40
2023-01-01T15:40:52.760Z,10.90
2023-01-01T15:44:29.330Z,11.20
2023-01-01T15:47:58.509Z,10.60
2023-01-01T15:51:28.417Z,11.00
2023-01-01T15:54:55.751Z,12.10
2023-01-01T15:58:31.872Z,11.90
2023-01-01T16:02:13.539Z,11.40
2023-01-01T16:05:50.314Z,11.10
2023-01-01T16:09:20.187Z,13.00
2023-01-01T16:12:47.030Z,16.70
2023-01-01T16:16:28.225Z,13.80
2023-01-01T16:19:56.389Z,14.00
2023-01-01T16:23:23.732Z,12.40
2023-01-01T16:26:50.897Z,12.20
2023-01-01T16:30:18.436Z,12.60
2023-01-01T16:33:46.308Z,12.10
2023-01-01T16:37:13.225Z,12.80
2023-01-01T16:40:40.495Z,13.10
2023-01-01T16:44:07.671Z,12.10
2023-01-01T16:47:34.600Z,11.50
2023-01-01T16:51:01.842Z,13.00
2023-01-01T16:54:28.974Z,11.60
2023-01-01T16:58:21.235Z,11.60
2023-01-01T17:01:44.886Z,12.90
2023-01-01T17:05:12.927Z,15.40
2023-01-01T17:08:40.793Z,13.70
2023-01-01T17:12:08.454Z,12.80
2023-01-01T17:15:35.860Z,13.50
2023-01-01T17:19:18.144Z,14.60
2023-01-01T17:22:46.150Z,12.60
2023-01-01T17:26:16.024Z,14.60
2023-01-01T17:29:43.005Z,15.60
2023-01-01T17:33:10.017Z,15.20
2023-01-01T17:36:36.892Z,14.10
2023-01-01T17:40:03.915Z,13.30
2023-01-01T17:43:34.921Z,16.10
2023-01-01T17:47:02.071Z,16.50
2023-01-01T17:50:29.852Z,16.00
2023-01-01T17:53:57.571Z,17.30
2023-01-01T17:57:25.392Z,18.70
2023-01-01T18:00:52.905Z,36.50
2023-01-01T18:04:20.793Z,36.10
2023-01-01T18:07:47.657Z,31.50
2023-01-01T18:11:14.920Z,36.00
2023-01-01T18:14:41.997Z,40.60
2023-01-01T18:18:08.895Z,34.10
2023-01-01T18:21:36.354Z,32.50
2023-01-01T18:25:03.357Z,31.00
2023-01-01T18:28:31.201Z,27.30
2023-01-01T18:31:58.182Z,29.90
2023-01-01T18:35:25.066Z,28.20
2023-01-01T18:39:00.573Z,24.20
2023-01-01T18:42:44.342Z,17.90
2023-01-01T18:46:12.429Z,18.10
2023-01-01T18:49:40.743Z,17.50
2023-01-01T18:53:19.302Z,18.10
2023-01-01T18:56:48.107Z,20.20
2023-01-01T19:00:24.170Z,19.40
2023-01-01T19:03:53.707Z,21.90
2023-01-01T19:07:21.220Z,22.90
2023-01-01T19:10:50.618Z,22.80
2023-01-01T19:14:20.010Z,19.50
2023-01-01T19:17:47.489Z,18.50
2023-01-01T19:21:22.531Z,18.60
2023-01-01T19:24:49.479Z,15.60
2023-01-01T19:28:39.414Z,18.40
2023-01-01T19:32:06.982Z,21.30
2023-01-01T19:35:33.857Z,20.10
2023-01-01T19:39:01.143Z,23.60
2023-01-01T19:42:28.447Z,21.20
2023-01-01T19:45:55.422Z,20.30
2023-01-01T19:49:22.236Z,24.30
2023-01-01T19:52:49.230Z,23.90
2023-01-01T19:56:16.890Z,20.70
2023-01-01T19:59:43.818Z,16.60
2023-01-01T20:03:51.448Z,14.80
2023-01-01T20:06:57.782Z,14.90
2023-01-01T20:10:25.167Z,13.70
2023-01-01T20:13:52.517Z,13.60
2023-01-01T20:17:19.808Z,12.50
2023-01-01T20:21:00.671Z,14.30
2023-01-01T20:24:27.865Z,13.90
2023-01-01T20:28:12.443Z,16.20
2023-01-01T20:31:40.530Z,16.80
2023-01-01T20:35:08.606Z,17.30
2023-01-01T20:38:40.019Z,17.80
2023-01-01T20:42:08.090Z,19.00
2023-01-01T20:45:35.055Z,18.50
2023-01-01T20:49:02.031Z,19.80
2023-01-01T20:52:29.850Z,18.60
2023-01-01T20:55:56.730Z,17.90
2023-01-01T20:59:35.396Z,18.80
2023-01-01T21:03:04.336Z,17.40
2023-01-01T21:06:31.399Z,16.30
2023-01-01T21:09:58.287Z,15.70
2023-01-01T21:13:25.781Z,14.60
2023-01-01T21:16:53.016Z,13.90
2023-01-01T21:20:20.393Z,14.30
2023-01-01T21:23:47.842Z,13.50
2023-01-01T21:27:19.073Z,12.10
2023-01-01T21:30:51.773Z,12.60
2023-01-01T21:34:38.456Z,12.50
2023-01-01T21:38:17.451Z,12.20
2023-01-01T21:41:44.506Z,13.20
2023-01-01T21:45:19.333Z,13.50
2023-01-01T21:48:56.396Z,14.10
2023-01-01T21:52:26.064Z,13.30
2023-01-01T21:59:30.373Z,12.30
2023-01-01T22:02:57.291Z,12.60
2023-01-01T22:06:24.440Z,11.20
2023-01-01T22:09:52.428Z,12.90
2023-01-01T22:13:20.830Z,10.80
2023-01-01T22:16:52.453Z,11.40
2023-01-01T22:20:24.165Z,11.10
2023-01-01T22:23:55.754Z,11.30
2023-01-01T22:27:30.188Z,11.00
2023-01-01T22:31:01.096Z,11.40
2023-01-01T22:34:28.220Z,12.70
2023-01-01T22:37:56.641Z,12.40
2023-01-01T22:41:23.951Z,11.50
2023-01-01T22:45:00.538Z,11.00
2023-01-01T22:48:33.692Z,11.60
2023-01-01T22:52:01.767Z,11.40
2023-01-01T22:55:28.893Z,10.80
2023-01-01T22:58:57.630Z,10.40
2023-01-01T23:02:24.982Z,11.80
2023-01-01T23:05:53.058Z,11.90
2023-01-01T23:09:20.138Z,11.70
2023-01-01T23:12:47.267Z,12.10
2023-01-01T23:16:14.363Z,12.20
2023-01-01T23:19:41.379Z,13.70
2023-01-01T23:23:08.330Z,12.70
2023-01-01T23:26:35.435Z,13.20
2023-01-01T23:30:03.686Z,13.20
2023-01-01T23:33:32.615Z,11.90
2023-01-01T23:36:59.863Z,12.70
2023-01-01T23:40:27.078Z,12.80
2023-01-01T23:43:53.985Z,11.40
2023-01-01T23:47:21.168Z,12.30
2023-01-01T23:50:48.865Z,12.30
2023-01-01T23:54:15.910Z,12.00
2023-01-01T23:57:42.873Z,11.80
